Time;durP1;ratioP1;P1;durP2;ratioP2;P2;SDS_P1;SDS_P2;PMS_P1;PMS_P2;Temp;Humidity;BMP_temperature;BMP_pressure;BME280_temperature;BME280_humidity;BME280_pressure;Samples;Min_cycle;Max_cycle;Signal;HPM_P1;HPM_P2
2023/08/24 00:00:46;;;;;;;10.37;9.23;;;;;;;21.46;92.72;98381.91;4161393;28;20635;-92
2023/08/24 00:02:49;;;;;;;11.80;9.57;;;;;;;21.45;93.71;98382.88;4158290;28;20671;-93
2023/08/24 00:04:53;;;;;;;11.63;8.77;;;;;;;21.42;92.39;98373.44;4171064;28;20667;-91
2023/08/24 00:06:56;;;;;;;9.77;8.77;;;;;;;21.40;92.76;98371.94;4161861;28;20647;-91
2023/08/24 00:08:59;;;;;;;8.67;7.87;;;;;;;21.39;93.97;98372.91;4160552;28;21209;-92
2023/08/24 00:11:04;;;;;;;9.47;8.57;;;;;;;21.39;92.94;98365.81;4175945;28;20689;-92
2023/08/24 00:13:07;;;;;;;10.37;8.37;;;;;;;21.38;93.87;98366.78;4157247;28;21196;-91
2023/08/24 00:15:11;;;;;;;10.03;9.00;;;;;;;21.32;93.67;98358.66;4172884;28;20624;-93
2023/08/24 00:17:14;;;;;;;9.10;8.20;;;;;;;21.30;93.49;98356.16;4164411;28;21250;-92
2023/08/24 00:19:17;;;;;;;9.67;8.40;;;;;;;21.28;92.94;98360.78;4169780;28;21174;-93
2023/08/24 00:21:22;;;;;;;8.93;8.13;;;;;;;21.27;93.95;98358.28;4162063;28;20663;-92
2023/08/24 00:23:26;;;;;;;12.20;8.77;;;;;;;21.27;92.74;98362.78;4153129;28;20648;-92
2023/08/24 00:25:30;;;;;;;9.27;8.40;;;;;;;21.25;92.72;98362.13;4155777;28;20636;-92
2023/08/24 00:27:33;;;;;;;9.10;8.20;;;;;;;21.22;93.55;98352.66;4157574;28;20752;-92
2023/08/24 00:29:37;;;;;;;9.50;8.60;;;;;;;21.19;93.80;98350.34;4161693;28;21179;-92
2023/08/24 00:31:40;;;;;;;9.20;8.40;;;;;;;21.16;93.67;98350.66;4162741;28;20629;-93
2023/08/24 00:33:44;;;;;;;9.47;8.67;;;;;;;21.15;93.51;98342.88;4158016;28;20748;-92
2023/08/24 00:35:47;;;;;;;9.83;8.83;;;;;;;21.14;94.67;98347.34;4176868;28;20640;-93
2023/08/24 00:37:51;;;;;;;9.60;8.70;;;;;;;21.13;93.46;98331.59;4171272;28;20628;-92
2023/08/24 00:39:54;;;;;;;10.50;8.53;;;;;;;21.14;94.64;98330.56;4166786;28;21253;-92
2023/08/24 00:41:58;;;;;;;9.47;8.57;;;;;;;21.13;93.36;98335.06;4161324;28;20666;-93
2023/08/24 00:44:01;;;;;;;9.40;8.50;;;;;;;21.09;94.04;98319.63;4158937;28;20697;-92
2023/08/24 00:46:08;;;;;;;9.17;8.30;;;;;;;21.08;93.22;98326.78;4160166;28;20669;-91
2023/08/24 00:48:11;;;;;;;11.40;9.10;;;;;;;21.08;93.79;98326.78;4153605;28;21310;-92
2023/08/24 00:50:15;;;;;;;10.10;9.03;;;;;;;21.07;94.00;98321.63;4156104;28;21082;-92
2023/08/24 00:52:18;;;;;;;8.93;8.03;;;;;;;21.04;94.33;98317.47;4177451;28;20627;-92
2023/08/24 00:54:27;;;;;;;9.77;8.87;;;;;;;21.02;93.90;98318.66;4162894;28;21179;-93
2023/08/24 00:56:30;;;;;;;9.57;8.67;;;;;;;20.99;94.04;98319.78;4158122;28;20660;-93
2023/08/24 00:58:34;;;;;;;9.43;8.40;;;;;;;20.99;93.90;98321.63;4155433;28;21426;-91
2023/08/24 01:00:37;;;;;;;8.60;7.80;;;;;;;20.97;93.77;98318.28;4171731;28;20631;-92
2023/08/24 01:02:42;;;;;;;10.70;8.60;;;;;;;20.96;94.32;98301.56;4173649;28;20654;-91
2023/08/24 01:04:47;;;;;;;9.00;8.20;;;;;;;20.96;94.15;98306.03;4179380;28;20668;-92
2023/08/24 01:06:51;;;;;;;9.97;8.97;;;;;;;20.94;94.99;98302.69;4171089;28;20635;-93
2023/08/24 01:08:54;;;;;;;9.10;8.20;;;;;;;20.93;93.29;98301.06;4162970;28;20660;-92
2023/08/24 01:11:01;;;;;;;10.30;9.00;;;;;;;20.91;93.84;98303.03;4171042;28;20640;-92
2023/08/24 01:13:09;;;;;;;9.40;8.50;;;;;;;20.90;95.10;98312.00;4178756;28;20721;-92
2023/08/24 01:15:15;;;;;;;9.80;8.90;;;;;;;20.91;94.44;98309.19;4172353;28;20628;-91
2023/08/24 01:17:22;;;;;;;9.40;8.50;;;;;;;20.90;95.00;98314.66;4171338;28;20733;-91
2023/08/24 01:19:37;;;;;;;8.97;8.17;;;;;;;20.87;94.37;98310.47;4177164;28;20708;-92
2023/08/24 01:21:40;;;;;;;9.73;8.73;;;;;;;20.87;95.10;98314.97;4150890;28;20658;-93
2023/08/24 01:23:48;;;;;;;9.20;8.40;;;;;;;20.89;94.87;98308.50;4149060;28;20635;-92
2023/08/24 01:25:53;;;;;;;9.13;8.23;;;;;;;20.90;93.77;98310.16;4177081;28;21028;-91
2023/08/24 01:27:58;;;;;;;9.63;8.73;;;;;;;20.91;94.58;98309.19;4159985;28;20680;-92
2023/08/24 01:30:03;;;;;;;9.83;8.53;;;;;;;20.91;95.06;98301.22;4154931;28;20647;-91
2023/08/24 01:32:10;;;;;;;9.40;8.50;;;;;;;20.88;95.19;98296.25;4177111;28;20629;-92
2023/08/24 01:34:13;;;;;;;9.57;8.67;;;;;;;20.89;94.89;98297.88;4163047;28;20615;-91
2023/08/24 01:36:17;;;;;;;9.37;8.57;;;;;;;20.86;94.53;98294.72;4179423;28;20667;-92
2023/08/24 01:38:20;;;;;;;9.80;8.80;;;;;;;20.82;94.98;98282.78;4156823;28;20631;-92
2023/08/24 01:40:28;;;;;;;9.20;8.30;;;;;;;20.81;94.08;98289.09;4170663;28;20619;-89
2023/08/24 01:42:31;;;;;;;9.50;8.70;;;;;;;20.80;94.60;98284.78;4172197;28;20692;-92
2023/08/24 01:44:38;;;;;;;10.70;8.90;;;;;;;20.77;94.51;98285.09;4178090;28;20625;-93
2023/08/24 01:46:43;;;;;;;9.27;8.37;;;;;;;20.76;94.27;98294.03;4157074;28;20611;-92
2023/08/24 01:48:47;;;;;;;9.70;8.80;;;;;;;20.76;94.34;98295.88;4151006;28;20647;-92
2023/08/24 01:50:49;;;;;;;9.60;8.60;;;;;;;20.75;95.26;98295.06;4160801;28;20626;-92
2023/08/24 01:52:52;;;;;;;9.83;8.80;;;;;;;20.74;94.66;98293.38;4161935;28;20626;-92
2023/08/24 01:54:55;;;;;;;9.60;8.60;;;;;;;20.73;93.72;98297.00;4171781;28;21120;-92
2023/08/24 01:56:58;;;;;;;9.07;8.00;;;;;;;20.71;94.59;98304.31;4153703;28;20709;-93
2023/08/24 01:59:00;;;;;;;9.33;8.43;;;;;;;20.69;94.29;98314.25;4155251;28;20748;-92
2023/08/24 02:01:05;;;;;;;10.07;9.13;;;;;;;20.68;94.08;98320.53;4159050;28;20663;-92
2023/08/24 02:03:09;;;;;;;9.13;8.33;;;;;;;20.68;94.43;98312.59;4162306;28;20782;-89
2023/08/24 02:05:12;;;;;;;8.90;8.10;;;;;;;20.65;93.58;98307.56;4165860;28;20670;-93
2023/08/24 02:07:15;;;;;;;9.40;8.50;;;;;;;20.60;95.40;98317.84;4175606;28;20636;-92
2023/08/24 02:09:18;;;;;;;9.93;8.90;;;;;;;20.55;94.26;98317.50;4167025;28;21229;-91
2023/08/24 02:11:22;;;;;;;9.57;8.77;;;;;;;20.52;93.83;98311.66;4159501;28;20680;-92
2023/08/24 02:13:24;;;;;;;8.70;7.90;;;;;;;20.51;95.72;98318.81;4173923;28;20665;-92
2023/08/24 02:15:27;;;;;;;9.30;8.40;;;;;;;20.51;94.57;98320.63;4151144;28;20646;-91
2023/08/24 02:17:31;;;;;;;9.80;8.90;;;;;;;20.51;94.24;98320.63;4162944;28;20673;-91
2023/08/24 02:19:34;;;;;;;11.07;8.50;;;;;;;20.51;95.94;98316.16;4154137;28;21035;-92
2023/08/24 02:21:37;;;;;;;8.57;7.77;;;;;;;20.51;94.36;98313.50;4159881;28;20680;-91
2023/08/24 02:23:41;;;;;;;9.10;8.30;;;;;;;20.47;94.58;98309.50;4179023;28;20668;-92
2023/08/24 02:25:44;;;;;;;9.33;8.43;;;;;;;20.45;96.01;98308.03;4170593;28;20622;-92
2023/08/24 02:27:48;;;;;;;16.03;9.10;;;;;;;20.42;94.93;98308.34;4156624;28;21194;-87
2023/08/24 02:29:52;;;;;;;9.77;8.77;;;;;;;20.39;95.50;98304.19;4176550;28;21259;-87
2023/08/24 02:31:55;;;;;;;9.57;8.70;;;;;;;20.38;94.81;98302.50;4174503;28;20633;-86
2023/08/24 02:34:00;;;;;;;9.30;8.30;;;;;;;20.37;95.60;98298.22;4160843;28;20630;-87
2023/08/24 02:36:04;;;;;;;9.70;8.70;;;;;;;20.38;94.88;98299.84;4172867;28;21426;-86
2023/08/24 02:38:07;;;;;;;9.77;8.87;;;;;;;20.39;96.32;98296.22;4157551;28;20683;-87
2023/08/24 02:40:11;;;;;;;9.60;8.70;;;;;;;20.39;94.89;98288.28;4171947;28;20633;-86
2023/08/24 02:42:14;;;;;;;11.83;9.07;;;;;;;20.38;94.41;98286.59;4170988;28;20623;-86
2023/08/24 02:44:16;;;;;;;10.33;9.13;;;;;;;20.32;95.13;98284.59;4169867;28;20755;-86
2023/08/24 02:46:21;;;;;;;10.03;8.90;;;;;;;20.29;94.51;98286.75;4161481;28;20637;-86
2023/08/24 02:48:24;;;;;;;10.00;8.60;;;;;;;20.28;94.66;98290.38;4167443;28;20731;-86
2023/08/24 02:50:28;;;;;;;10.33;9.40;;;;;;;20.28;96.38;98289.56;4171737;28;21236;-87
2023/08/24 02:52:33;;;;;;;11.10;8.50;;;;;;;20.28;95.28;98292.19;4160275;28;20621;-86
2023/08/24 02:54:36;;;;;;;11.33;9.03;;;;;;;20.27;96.38;98287.91;4151848;28;20669;-87
2023/08/24 02:56:39;;;;;;;10.37;9.37;;;;;;;20.28;95.14;98286.91;4170794;28;20644;-87
2023/08/24 02:58:42;;;;;;;9.30;8.50;;;;;;;20.27;96.16;98275.47;4165732;28;20653;-87
2023/08/24 03:00:44;;;;;;;10.70;9.50;;;;;;;20.28;94.93;98277.13;4161665;28;20634;-87
2023/08/24 03:02:48;;;;;;;9.67;8.77;;;;;;;20.29;95.64;98283.28;4156977;28;20696;-86
2023/08/24 03:04:51;;;;;;;9.03;8.00;;;;;;;20.28;95.07;98282.41;4172235;28;21112;-86
2023/08/24 03:06:55;;;;;;;10.23;9.23;;;;;;;20.25;96.29;98273.97;4171544;28;21131;-86
2023/08/24 03:09:00;;;;;;;9.47;8.47;;;;;;;20.23;95.31;98274.13;4165138;28;20625;-86
2023/08/24 03:11:04;;;;;;;10.23;9.27;;;;;;;20.23;95.43;98275.97;4172288;28;20621;-86
2023/08/24 03:13:07;;;;;;;9.33;8.43;;;;;;;20.23;95.55;98281.25;4167721;28;21112;-87
2023/08/24 03:15:10;;;;;;;9.70;8.90;;;;;;;20.22;95.02;98271.63;4166942;28;20642;-86
2023/08/24 03:17:14;;;;;;;10.13;9.23;;;;;;;20.21;95.61;98277.94;4171341;28;20632;-86
2023/08/24 03:19:17;;;;;;;9.73;8.93;;;;;;;20.18;96.20;98288.88;4181924;28;20708;-87
2023/08/24 03:21:21;;;;;;;9.90;8.90;;;;;;;20.16;95.65;98285.53;4180814;28;20688;-86
2023/08/24 03:23:25;;;;;;;9.77;8.87;;;;;;;20.16;95.63;98293.47;4168082;28;20658;-86
2023/08/24 03:25:27;;;;;;;10.30;9.20;;;;;;;20.11;95.92;98285.19;4166566;28;20618;-86
2023/08/24 03:27:30;;;;;;;11.03;9.93;;;;;;;20.09;95.68;98285.34;4172983;28;20657;-86
2023/08/24 03:29:34;;;;;;;10.63;8.90;;;;;;;20.11;95.40;98285.19;4180731;28;20629;-86
2023/08/24 03:31:37;;;;;;;9.83;8.93;;;;;;;20.10;95.43;98280.84;4174808;28;20628;-86
2023/08/24 03:33:39;;;;;;;10.90;9.40;;;;;;;20.10;95.03;98276.41;4174099;28;20644;-87
2023/08/24 03:35:43;;;;;;;11.07;9.97;;;;;;;20.10;96.46;98270.25;4158827;28;20649;-86
2023/08/24 03:37:46;;;;;;;11.43;10.33;;;;;;;20.08;96.95;98277.56;4183491;28;20613;-86
2023/08/24 03:39:51;;;;;;;9.33;8.43;;;;;;;20.05;96.52;98273.38;4183312;28;20687;-85
2023/08/24 03:41:54;;;;;;;16.03;9.83;;;;;;;20.03;96.69;98270.06;4172796;28;20720;-86
2023/08/24 03:43:57;;;;;;;13.27;10.13;;;;;;;19.99;96.47;98260.78;4167204;28;20745;-87
2023/08/24 03:45:59;;;;;;;12.87;11.67;;;;;;;19.99;95.16;98254.66;4177303;28;21019;-86
2023/08/24 03:48:03;;;;;;;22.50;10.67;;;;;;;19.98;97.08;98251.19;4180641;28;20634;-86
2023/08/24 03:50:07;;;;;;;13.37;12.27;;;;;;;20.00;95.60;98251.03;4178629;28;20614;-87
2023/08/24 03:52:10;;;;;;;13.97;12.00;;;;;;;20.01;96.17;98250.88;4170742;28;20610;-87
2023/08/24 03:54:17;;;;;;;12.67;11.47;;;;;;;20.02;97.16;98238.44;4176951;28;20631;-86
2023/08/24 03:56:23;;;;;;;13.57;12.17;;;;;;;20.04;95.43;98239.97;4178673;28;20770;-86
2023/08/24 03:58:26;;;;;;;12.93;11.63;;;;;;;20.06;96.99;98231.84;4173003;28;21208;-86
2023/08/24 04:00:28;;;;;;;11.07;9.20;;;;;;;20.11;95.03;98237.50;4169469;28;20641;-87
2023/08/24 04:02:32;;;;;;;9.47;8.47;;;;;;;20.22;95.47;98235.41;4172118;28;21050;-86
2023/08/24 04:04:35;;;;;;;8.80;8.00;;;;;;;20.33;93.32;98235.91;4167132;28;20681;-86
2023/08/24 04:06:38;;;;;;;8.40;7.60;;;;;;;20.42;92.10;98237.59;4171305;28;21378;-86
2023/08/24 04:08:41;;;;;;;10.17;9.27;;;;;;;20.40;93.49;98236.94;4154245;28;20653;-86
2023/08/24 04:10:44;;;;;;;9.57;8.57;;;;;;;20.41;92.55;98232.47;4175826;28;20674;-87
2023/08/24 04:12:49;;;;;;;9.53;8.57;;;;;;;20.42;94.32;98227.00;4170566;28;20668;-86
2023/08/24 04:14:53;;;;;;;8.47;7.67;;;;;;;20.42;94.05;98223.53;4167564;28;20687;-86
2023/08/24 04:16:56;;;;;;;9.57;8.67;;;;;;;20.42;93.32;98229.66;4173007;28;20629;-87
2023/08/24 04:18:59;;;;;;;8.90;8.10;;;;;;;20.40;94.85;98226.34;4161561;28;20657;-86
2023/08/24 04:21:02;;;;;;;9.67;8.67;;;;;;;20.38;93.81;98224.84;4160846;28;20691;-86
2023/08/24 04:23:05;;;;;;;9.90;8.50;;;;;;;20.35;93.24;98228.63;4167644;28;20641;-87
2023/08/24 04:25:10;;;;;;;9.70;8.80;;;;;;;20.34;94.50;98216.38;4179849;28;20664;-87
2023/08/24 04:27:13;;;;;;;9.63;8.73;;;;;;;20.35;94.71;98220.66;4179376;28;20633;-87
2023/08/24 04:29:19;;;;;;;10.03;8.80;;;;;;;20.35;94.89;98225.97;4172377;28;20665;-86
2023/08/24 04:31:22;;;;;;;8.97;8.03;;;;;;;20.35;95.37;98225.16;4173274;28;21185;-86
2023/08/24 04:33:26;;;;;;;9.27;8.37;;;;;;;20.35;95.88;98220.66;4175166;28;20656;-87
2023/08/24 04:35:29;;;;;;;9.97;8.97;;;;;;;20.34;95.00;98221.69;4170091;28;20634;-86
2023/08/24 04:37:32;;;;;;;9.60;8.70;;;;;;;20.35;96.35;98218.03;4174659;28;20712;-86
2023/08/24 04:39:35;;;;;;;9.00;8.20;;;;;;;20.35;95.65;98217.22;4167261;28;20691;-86
2023/08/24 04:41:38;;;;;;;9.90;9.00;;;;;;;20.34;95.85;98216.38;4157661;28;20622;-87
2023/08/24 04:43:41;;;;;;;8.90;8.10;;;;;;;20.34;95.24;98210.22;4169813;28;20627;-86
2023/08/24 04:45:48;;;;;;;8.80;8.00;;;;;;;20.36;95.54;98209.09;4167927;28;20644;-87
2023/08/24 04:47:55;;;;;;;9.87;8.97;;;;;;;20.36;95.29;98201.16;4176392;28;21193;-86
2023/08/24 04:49:58;;;;;;;9.40;8.60;;;;;;;20.37;95.78;98208.13;4162667;28;21187;-86
2023/08/24 04:52:01;;;;;;;8.80;8.07;;;;;;;20.39;95.95;98211.41;4168442;28;21219;-86
2023/08/24 04:54:05;;;;;;;10.60;9.00;;;;;;;20.42;95.73;98211.09;4168769;28;21216;-87
2023/08/24 04:56:08;;;;;;;9.00;8.20;;;;;;;20.44;95.91;98213.59;4156593;28;20613;-86
2023/08/24 04:58:13;;;;;;;9.90;8.90;;;;;;;20.45;95.71;98212.59;4172270;28;21217;-87
2023/08/24 05:00:17;;;;;;;10.70;8.73;;;;;;;20.44;96.45;98202.97;4159208;28;20681;-87
2023/08/24 05:02:21;;;;;;;9.13;8.33;;;;;;;20.44;97.39;98203.81;4156997;28;21038;-86
2023/08/24 05:04:24;;;;;;;9.37;8.47;;;;;;;20.46;96.18;98196.53;4170880;28;20673;-86
2023/08/24 05:06:26;;;;;;;10.00;9.00;;;;;;;20.47;95.65;98203.47;4166277;28;21245;-86
2023/08/24 05:08:33;;;;;;;9.13;8.27;;;;;;;20.50;94.98;98202.34;4169956;28;21270;-87
2023/08/24 05:10:36;;;;;;;9.90;8.60;;;;;;;20.53;94.54;98213.44;4168484;28;20625;-86
2023/08/24 05:12:39;;;;;;;9.80;8.80;;;;;;;20.53;95.73;98197.53;4174333;28;20629;-86
2023/08/24 05:14:42;;;;;;;10.03;8.37;;;;;;;20.53;95.44;98199.34;4173375;28;20675;-86
2023/08/24 05:16:45;;;;;;;9.53;8.60;;;;;;;20.54;96.30;98193.91;4165765;28;20733;-87
2023/08/24 05:18:49;;;;;;;9.10;8.30;;;;;;;20.53;95.36;98192.22;4161863;28;20634;-86
2023/08/24 05:20:52;;;;;;;10.80;9.70;;;;;;;20.53;96.11;98175.50;4169375;28;20635;-87
2023/08/24 05:22:56;;;;;;;10.00;9.10;;;;;;;20.57;94.20;98182.16;4171234;28;20629;-86
2023/08/24 05:24:59;;;;;;;10.20;9.10;;;;;;;20.56;95.86;98172.53;4154641;28;21421;-86
2023/08/24 05:27:02;;;;;;;10.00;9.00;;;;;;;20.61;96.23;98175.50;4168693;28;20641;-86
2023/08/24 05:29:05;;;;;;;10.60;9.50;;;;;;;20.62;95.22;98180.63;4162129;28;21275;-86
2023/08/24 05:31:08;;;;;;;10.20;9.20;;;;;;;20.66;96.10;98181.13;4175091;28;20770;-86
2023/08/24 05:33:14;;;;;;;10.30;9.30;;;;;;;20.68;94.69;98182.66;4168595;28;20680;-86
2023/08/24 05:35:19;;;;;;;10.00;9.10;;;;;;;20.76;95.68;98187.97;4176983;28;21267;-86
2023/08/24 05:37:22;;;;;;;9.90;9.00;;;;;;;20.81;95.04;98169.75;4170507;28;21256;-86
2023/08/24 05:39:25;;;;;;;9.60;8.70;;;;;;;20.87;95.65;98172.56;4170552;28;20738;-86
2023/08/24 05:41:28;;;;;;;11.13;9.93;;;;;;;20.91;95.43;98178.34;4169986;28;20669;-86
2023/08/24 05:43:31;;;;;;;10.63;9.63;;;;;;;20.99;95.09;98170.41;4155721;28;20630;-86
2023/08/24 05:45:34;;;;;;;10.40;9.50;;;;;;;21.04;92.96;98170.75;4178535;28;20669;-86
2023/08/24 05:47:38;;;;;;;10.83;9.83;;;;;;;21.11;93.27;98177.00;4178557;28;21375;-86
2023/08/24 05:49:43;;;;;;;11.53;10.43;;;;;;;21.29;94.03;98171.38;4157015;28;20638;-87
2023/08/24 05:51:50;;;;;;;10.33;9.33;;;;;;;21.50;94.28;98174.34;4170625;28;20670;-86
2023/08/24 05:53:55;;;;;;;10.40;9.40;;;;;;;21.64;92.03;98173.63;4160308;28;20676;-86
2023/08/24 05:55:59;;;;;;;10.80;9.90;;;;;;;21.65;92.44;98167.31;4165619;28;20635;-87
2023/08/24 05:58:02;;;;;;;10.37;9.37;;;;;;;21.58;91.91;98169.00;4170669;28;20631;-87
2023/08/24 06:00:09;;;;;;;10.50;9.40;;;;;;;21.57;92.78;98169.97;4168606;28;20635;-86
2023/08/24 06:02:17;;;;;;;9.90;9.00;;;;;;;21.58;92.83;98161.03;4156606;28;20627;-86
2023/08/24 06:04:20;;;;;;;10.90;9.90;;;;;;;21.63;92.91;98171.13;4175784;28;20702;-86
2023/08/24 06:06:24;;;;;;;11.10;10.10;;;;;;;21.84;92.03;98178.34;4161023;28;20662;-86
2023/08/24 06:08:28;;;;;;;10.47;9.47;;;;;;;22.12;89.95;98176.09;4171980;28;20645;-86
2023/08/24 06:10:31;;;;;;;10.03;9.13;;;;;;;22.40;88.53;98178.94;4156038;28;20671;-87
2023/08/24 06:12:35;;;;;;;10.17;9.27;;;;;;;22.66;89.63;98184.75;4171041;28;20640;-87
2023/08/24 06:14:38;;;;;;;8.87;7.97;;;;;;;22.73;88.78;98183.88;4166121;28;20628;-86
2023/08/24 06:16:41;;;;;;;9.97;8.97;;;;;;;22.90;89.08;98187.25;4156793;28;20635;-86
2023/08/24 06:18:44;;;;;;;9.43;8.63;;;;;;;22.90;88.76;98185.38;4171489;28;20742;-86
2023/08/24 06:20:48;;;;;;;9.37;8.57;;;;;;;22.85;88.51;98184.25;4161837;28;20621;-87
2023/08/24 06:22:52;;;;;;;8.93;8.13;;;;;;;22.79;88.32;98196.47;4166548;28;20671;-87
2023/08/24 06:24:59;;;;;;;8.60;7.80;;;;;;;22.78;89.28;98186.00;4175569;28;20842;-87
2023/08/24 06:27:02;;;;;;;9.17;8.10;;;;;;;22.88;89.44;98192.75;4151991;28;20647;-86
2023/08/24 06:29:05;;;;;;;9.13;8.27;;;;;;;23.18;90.08;98191.81;4174972;28;21041;-87
2023/08/24 06:31:08;;;;;;;9.00;8.20;;;;;;;23.53;86.73;98197.31;4161804;28;20639;-87
2023/08/24 06:33:11;;;;;;;8.20;7.50;;;;;;;23.88;85.74;98194.78;4174197;28;20631;-86
2023/08/24 06:35:15;;;;;;;8.60;7.90;;;;;;;24.09;83.83;98202.03;4171050;28;20641;-86
2023/08/24 06:37:17;;;;;;;8.67;7.83;;;;;;;24.31;83.70;98201.88;4171248;28;20637;-87
2023/08/24 06:39:20;;;;;;;8.10;7.30;;;;;;;24.45;84.44;98209.09;4157161;28;20702;-87
2023/08/24 06:41:25;;;;;;;8.80;8.00;;;;;;;24.39;82.94;98207.97;4178409;28;21360;-86
2023/08/24 06:43:28;;;;;;;7.90;7.20;;;;;;;24.33;82.43;98211.41;4160934;28;20655;-87
2023/08/24 06:45:32;;;;;;;8.37;7.57;;;;;;;24.29;84.23;98215.41;4163708;28;20667;-87
2023/08/24 06:47:35;;;;;;;8.30;7.60;;;;;;;24.29;84.85;98217.25;4169185;28;20626;-87
2023/08/24 06:49:37;;;;;;;7.93;7.23;;;;;;;24.27;84.07;98222.78;4175238;28;20619;-87
2023/08/24 06:51:41;;;;;;;7.73;7.13;;;;;;;24.26;83.91;98228.31;4169617;28;20657;-86
2023/08/24 06:53:46;;;;;;;7.43;6.83;;;;;;;24.18;83.80;98239.88;4172392;28;20626;-87
2023/08/24 06:55:55;;;;;;;8.33;7.60;;;;;;;24.13;84.48;98243.28;4157570;28;20626;-87
2023/08/24 06:57:59;;;;;;;7.93;7.23;;;;;;;24.06;85.31;98253.06;4149644;28;20702;-87
2023/08/24 07:00:06;;;;;;;7.50;6.80;;;;;;;23.99;84.72;98249.47;4167022;28;20684;-87
2023/08/24 07:02:10;;;;;;;8.43;7.63;;;;;;;23.98;85.18;98258.47;4157493;28;20636;-87
2023/08/24 07:04:13;;;;;;;7.80;7.10;;;;;;;23.93;84.97;98259.00;4160812;28;21262;-87
2023/08/24 07:06:16;;;;;;;7.30;6.70;;;;;;;23.94;86.02;98258.00;4169528;28;20672;-87
2023/08/24 07:08:19;;;;;;;7.30;6.70;;;;;;;23.98;85.13;98251.31;4167222;28;20682;-91
2023/08/24 07:10:23;;;;;;;7.23;6.63;;;;;;;24.03;84.63;98254.25;4174906;28;20636;-91
2023/08/24 07:12:26;;;;;;;7.70;6.73;;;;;;;24.09;84.72;98260.69;4168822;28;21213;-92
2023/08/24 07:14:30;;;;;;;7.40;6.70;;;;;;;24.15;84.10;98258.94;4170612;28;20682;-92
2023/08/24 07:16:34;;;;;;;6.83;6.23;;;;;;;24.25;84.32;98259.47;4171428;28;20636;-91
2023/08/24 07:18:37;;;;;;;7.40;6.70;;;;;;;24.34;84.13;98266.41;4154431;28;20693;-91
2023/08/24 07:20:40;;;;;;;6.93;6.30;;;;;;;24.37;82.95;98257.19;4175924;28;20729;-92
2023/08/24 07:22:43;;;;;;;7.30;6.70;;;;;;;24.41;83.03;98242.47;4177107;28;20616;-92
2023/08/24 07:24:47;;;;;;;7.00;6.30;;;;;;;24.48;82.11;98246.88;4161791;28;21214;-92
2023/08/24 07:26:50;;;;;;;7.90;7.20;;;;;;;24.89;85.59;98255.97;4167335;28;20695;-93
2023/08/24 07:28:53;;;;;;;7.30;6.60;;;;;;;25.44;83.73;98248.91;4172815;28;20973;-91
2023/08/24 07:30:58;;;;;;;7.90;7.20;;;;;;;25.73;82.54;98244.25;4167622;28;21217;-92
2023/08/24 07:33:02;;;;;;;7.70;6.43;;;;;;;26.10;80.48;98221.44;4169677;28;21262;-90
2023/08/24 07:35:07;;;;;;;7.27;6.67;;;;;;;26.23;80.17;98207.31;4170062;28;20621;-92
2023/08/24 07:37:10;;;;;;;6.80;5.70;;;;;;;26.32;79.85;98201.59;4157745;28;20661;-91
2023/08/24 07:39:13;;;;;;;6.30;5.80;;;;;;;26.32;77.33;98203.47;4159399;28;20684;-91
2023/08/24 07:41:18;;;;;;;5.73;5.23;;;;;;;26.23;76.50;98205.44;4171147;28;20622;-90
2023/08/24 07:43:20;;;;;;;5.57;5.07;;;;;;;26.14;76.93;98211.97;4168616;28;20757;-93
2023/08/24 07:45:24;;;;;;;6.40;5.23;;;;;;;26.09;77.72;98200.25;4161289;28;21228;-92
2023/08/24 07:47:28;;;;;;;5.80;5.30;;;;;;;26.09;78.02;98201.06;4179944;28;20655;-92
2023/08/24 07:49:32;;;;;;;5.80;5.30;;;;;;;26.10;77.16;98192.03;4170404;28;20639;-92
2023/08/24 07:51:35;;;;;;;6.30;5.70;;;;;;;26.30;77.81;98201.00;4178949;28;20642;-92
2023/08/24 07:53:38;;;;;;;6.10;5.60;;;;;;;26.58;76.80;98212.41;4171252;28;20725;-91
2023/08/24 07:55:41;;;;;;;6.00;5.50;;;;;;;26.70;77.44;98208.13;4178702;28;20639;-92
2023/08/24 07:57:44;;;;;;;5.73;5.23;;;;;;;26.69;76.88;98204.63;4159745;28;20636;-92
2023/08/24 07:59:47;;;;;;;6.17;5.63;;;;;;;26.73;78.34;98202.34;4172233;28;20646;-92
2023/08/24 08:01:51;;;;;;;6.50;6.00;;;;;;;26.82;78.97;98203.81;4176245;28;20678;-93
2023/08/24 08:03:55;;;;;;;6.00;5.43;;;;;;;27.22;78.91;98217.91;4173968;28;20704;-94
2023/08/24 08:05:59;;;;;;;6.73;6.13;;;;;;;27.62;74.30;98230.34;4162566;28;20647;-92
2023/08/24 08:08:01;;;;;;;5.80;5.30;;;;;;;27.87;73.38;98225.97;4156979;28;20631;-92
2023/08/24 08:10:06;;;;;;;6.50;5.90;;;;;;;28.14;73.81;98223.03;4172041;28;20742;-91
2023/08/24 08:12:09;;;;;;;6.63;6.03;;;;;;;28.37;72.26;98224.22;4171363;28;20704;-92
2023/08/24 08:14:12;;;;;;;6.37;5.77;;;;;;;28.57;70.13;98222.28;4178552;28;21223;-91
2023/08/24 08:16:15;;;;;;;5.40;4.90;;;;;;;28.73;68.88;98227.16;4177790;28;20608;-92
2023/08/24 08:18:18;;;;;;;6.43;5.83;;;;;;;28.89;69.96;98227.50;4155933;28;20715;-92
2023/08/24 08:20:23;;;;;;;5.90;5.40;;;;;;;29.01;67.44;98229.25;4152244;28;20907;-91
2023/08/24 08:22:26;;;;;;;5.90;5.30;;;;;;;29.19;69.71;98221.28;4168931;28;20618;-92
2023/08/24 08:24:29;;;;;;;5.67;5.17;;;;;;;29.37;69.90;98220.59;4178030;28;20721;-91
2023/08/24 08:26:32;;;;;;;6.03;5.53;;;;;;;29.59;69.07;98228.06;4173783;28;21345;-92
2023/08/24 08:28:36;;;;;;;5.70;5.20;;;;;;;29.72;66.37;98226.03;4172225;28;20628;-91
2023/08/24 08:30:39;;;;;;;5.80;5.30;;;;;;;29.81;66.11;98215.88;4158876;28;20901;-91
2023/08/24 08:32:41;;;;;;;5.23;4.80;;;;;;;29.84;66.49;98224.31;4163585;28;20633;-91
2023/08/24 08:34:45;;;;;;;5.80;5.30;;;;;;;29.88;66.98;98219.31;4171873;28;20673;-92
2023/08/24 08:36:49;;;;;;;5.30;4.90;;;;;;;30.01;66.82;98218.13;4166531;28;20618;-92
2023/08/24 08:38:53;;;;;;;5.50;5.10;;;;;;;30.15;66.39;98224.22;4172700;28;20708;-91
2023/08/24 08:40:57;;;;;;;5.87;5.37;;;;;;;30.26;66.12;98218.88;4153589;28;20631;-91
2023/08/24 08:43:00;;;;;;;5.60;5.10;;;;;;;30.29;66.01;98220.31;4153357;28;20667;-91
2023/08/24 08:45:06;;;;;;;5.90;5.40;;;;;;;30.18;64.63;98218.38;4173620;28;20644;-90
2023/08/24 08:47:10;;;;;;;6.40;5.30;;;;;;;30.09;65.99;98212.44;4170937;28;20699;-92
2023/08/24 08:49:16;;;;;;;5.57;5.17;;;;;;;30.15;64.10;98216.13;4169483;28;20685;-91
2023/08/24 08:51:19;;;;;;;6.03;5.47;;;;;;;30.26;66.49;98224.28;4150098;28;20632;-92
2023/08/24 08:53:24;;;;;;;5.53;5.03;;;;;;;30.37;64.43;98210.09;4177943;28;20636;-92
2023/08/24 08:55:29;;;;;;;5.80;5.30;;;;;;;30.52;65.95;98213.22;4151679;28;20872;-91
2023/08/24 08:57:32;;;;;;;6.10;5.60;;;;;;;30.74;65.93;98211.69;4170646;28;20698;-90
2023/08/24 08:59:36;;;;;;;5.37;4.97;;;;;;;30.92;66.81;98225.16;4159849;28;20637;-90
2023/08/24 09:01:39;;;;;;;6.10;5.40;;;;;;;30.97;65.25;98218.84;4176411;28;20643;-93
2023/08/24 09:03:44;;;;;;;5.93;5.43;;;;;;;31.02;64.94;98220.88;4161924;28;20679;-91
2023/08/24 09:05:48;;;;;;;5.93;5.43;;;;;;;31.03;64.50;98209.84;4174279;28;20621;-91
2023/08/24 09:07:51;;;;;;;6.70;6.10;;;;;;;31.13;65.06;98215.50;4173172;28;21244;-91
2023/08/24 09:09:56;;;;;;;5.23;4.83;;;;;;;31.24;64.96;98211.19;4153518;28;20676;-92
2023/08/24 09:12:00;;;;;;;5.80;5.40;;;;;;;31.31;62.75;98214.59;4172478;28;20748;-92
2023/08/24 09:14:03;;;;;;;6.17;5.67;;;;;;;31.37;64.38;98203.69;4155444;28;20629;-91
2023/08/24 09:16:08;;;;;;;6.10;5.60;;;;;;;31.44;65.71;98194.47;4153805;28;20828;-91
2023/08/24 09:18:11;;;;;;;6.33;5.73;;;;;;;31.55;63.89;98212.56;4159323;28;20636;-91
2023/08/24 09:20:15;;;;;;;6.17;5.63;;;;;;;31.55;64.61;98195.56;4156062;28;20621;-91
2023/08/24 09:22:18;;;;;;;5.80;5.27;;;;;;;31.56;62.64;98189.09;4167479;28;20634;-92
2023/08/24 09:24:30;;;;;;;6.63;5.30;;;;;;;31.58;64.23;98192.38;4163212;28;20633;-92
2023/08/24 09:26:36;;;;;;;6.00;5.50;;;;;;;31.59;62.95;98189.44;4172258;28;21056;-90
2023/08/24 09:28:43;;;;;;;5.73;5.23;;;;;;;31.58;64.70;98192.38;4159004;28;20625;-87
2023/08/24 09:30:46;;;;;;;5.60;5.20;;;;;;;31.67;66.35;98177.50;4158875;28;20671;-87
2023/08/24 09:32:52;;;;;;;5.93;5.43;;;;;;;31.69;64.24;98164.56;4172981;28;20636;-87
2023/08/24 09:34:56;;;;;;;6.80;6.20;;;;;;;31.68;63.78;98155.66;4162317;28;20634;-87
2023/08/24 09:36:59;;;;;;;6.60;6.10;;;;;;;31.62;63.53;98147.66;4170178;28;21243;-87
2023/08/24 09:39:05;;;;;;;6.00;5.50;;;;;;;31.72;66.53;98137.91;4160538;28;20625;-87
2023/08/24 09:41:08;;;;;;;6.37;5.87;;;;;;;31.71;64.16;98121.97;4157680;28;20741;-87